Flight Number: EUR1203 Duration: 1:20
Departure: Chisinau Int'l Airport (LUKK) at 18:25 Distance: 385 Nm
Arrival: Beograd/Belgrade (LYBE) at 19:45 Equipment: A321

Weather Information
Chisinau International Airport, Moldova (LUKK) 46-55-40N 028-55-51E May 22, 2018 - 03:30 PM EDT / 2018.05.22 1930 UTC
Wind: from the SSW (200 degrees) at 7 MPH (6 KT):0
Visibility: greater than 7 mile(s):0 Temperature: 64 F (18 C) Dew Point: 48 F (9 C) Relative Humidity: 55% Pressure (altimeter): 30.15 in. Hg (1021 hPa)
ob: LUKK 221930Z 20006KT CAVOK 18/09 Q1021 R08/CLRD// NOSIG cycle: 19
Sunrise: 02:24 Sunset: 17:37 (UTC)

Beograd / Surcin, Serbia and Montenegro (LYBE) 44-49N 020-17E 99M May 22, 2018 - 03:00 PM EDT / 2018.05.22 1900 UTC
Wind: from the SE (130 degrees) at 10 MPH (9 KT):0
Visibility: greater than 7 mile(s):0
Sky conditions: partly cloudy Temperature: 68 F (20 C) Dew Point: 59 F (15 C) Relative Humidity: 72% Pressure (altimeter): 30.00 in. Hg (1016 hPa)
ob: LYBE 221900Z 13009KT 9999 SCT040 20/15 Q1016 NOSIG cycle: 19
Sunrise: 03:06 Sunset: 18:04 (UTC)

TAF:2018/05/22 18:21 TAF TAF LYBE 221700Z 2218/2318 12009KT 9999 SCT040 TX27/2313Z TN14/2303Z TEMPO 2310/2316 VRB20KT 4000 TSRA SCT027CB BKN040

Previous Pireps for this route
Date Aircraft Flight time Fuel used Landing rate On time
2013-04-19A32101.329410-366No
2014-11-23B757-20001.1912862-206Charter
2015-04-19A32101.318557-212Yes
2015-08-11A3211.20163800Yes
(pireps marked green are flown by you)

Route map